createdAt,value
2022-11-15T00:00:30.058Z,36.8
2022-11-15T00:02:27.740Z,44.3
2022-11-15T00:04:25.275Z,39.1
2022-11-15T00:06:30.795Z,43.2
2022-11-15T00:10:26.008Z,33.4
2022-11-15T00:12:23.618Z,29.1
2022-11-15T00:14:21.219Z,55.6
2022-11-15T00:18:16.405Z,35.9
2022-11-15T00:20:21.918Z,38.8
2022-11-15T00:22:19.542Z,32.1
2022-11-15T00:24:17.148Z,41.2
2022-11-15T00:26:14.792Z,47.4
2022-11-15T00:28:12.392Z,35.4
2022-11-15T00:30:10.045Z,46.7
2022-11-15T00:32:07.623Z,45.1
2022-11-15T00:34:14.685Z,42.3
2022-11-15T00:38:09.846Z,47.7
2022-11-15T00:40:27.071Z,53.5
2022-11-15T00:42:24.675Z,63.3
2022-11-15T00:46:27.849Z,52.8
2022-11-15T00:48:25.483Z,48.6
2022-11-15T00:50:23.095Z,54.3
2022-11-15T00:52:20.684Z,57.4
2022-11-15T00:54:18.287Z,51.2
2022-11-15T00:56:15.924Z,67.3
2022-11-15T00:58:13.542Z,63.1
2022-11-15T01:02:16.661Z,59.2
2022-11-15T01:04:14.262Z,54.2
2022-11-15T01:06:11.904Z,44.8
2022-11-15T01:08:09.496Z,59
2022-11-15T01:10:07.113Z,64.3
2022-11-15T01:12:04.731Z,56.7
2022-11-15T01:14:10.272Z,55.9
2022-11-15T01:16:07.869Z,52
2022-11-15T01:18:05.480Z,53
2022-11-15T01:20:03.095Z,58.7
2022-11-15T01:22:00.711Z,52.1
2022-11-15T01:23:58.313Z,52.8
2022-11-15T01:25:55.926Z,46.6
2022-11-15T01:28:01.468Z,53.3
2022-11-15T01:29:59.087Z,65.2
2022-11-15T01:31:56.680Z,52.8
2022-11-15T01:32:59.436Z,51.5
2022-11-15T01:36:54.655Z,47.7
2022-11-15T01:38:52.276Z,52.4
2022-11-15T01:40:57.798Z,59.8
2022-11-15T01:42:55.409Z,59.9
2022-11-15T01:44:53.039Z,67.1
2022-11-15T01:46:50.616Z,56.8
2022-11-15T01:48:48.262Z,55.3
2022-11-15T01:50:45.855Z,55.1
2022-11-15T01:52:43.464Z,41.3
2022-11-15T01:54:48.992Z,45.4
2022-11-15T01:56:46.615Z,46.5
2022-11-15T01:58:44.228Z,52.4
2022-11-15T02:02:39.420Z,68.5
2022-11-15T02:04:37.035Z,54.3
2022-11-15T02:06:34.656Z,46.6
2022-11-15T02:12:35.425Z,46.2
2022-11-15T02:14:33.027Z,48.9
2022-11-15T02:16:30.669Z,90.2
2022-11-15T02:18:28.270Z,43.6
2022-11-15T02:20:25.911Z,55.7
2022-11-15T02:22:31.420Z,46.8
2022-11-15T02:24:29.034Z,44.7
2022-11-15T02:26:26.669Z,61.4
2022-11-15T02:27:29.450Z,45.9
2022-11-15T02:29:27.051Z,46.3
2022-11-15T02:31:24.669Z,49.2
2022-11-15T02:35:27.738Z,52.3
2022-11-15T02:37:25.373Z,45.2
2022-11-15T02:39:22.961Z,44.1
2022-11-15T02:41:20.580Z,53.3
2022-11-15T02:47:13.433Z,40.5
2022-11-15T02:53:14.217Z,48.2
2022-11-15T02:55:11.748Z,45.4
2022-11-15T02:57:09.388Z,92.9
2022-11-15T02:59:07.002Z,48.7
2022-11-15T03:01:04.740Z,73.4
2022-11-15T03:03:10.138Z,59
2022-11-15T03:05:07.769Z,55.5
2022-11-15T03:07:05.434Z,50.2
2022-11-15T03:09:02.966Z,65.3
2022-11-15T03:11:00.608Z,50.4
2022-11-15T03:12:58.205Z,55.4
2022-11-15T03:14:55.832Z,49
2022-11-15T03:17:01.327Z,49.9
2022-11-15T03:21:59.359Z,57.3
2022-11-15T03:23:56.966Z,49.2
2022-11-15T03:25:54.593Z,43.1
2022-11-15T03:27:52.219Z,36.9
2022-11-15T03:29:57.716Z,44.3
2022-11-15T03:31:55.337Z,47.3
2022-11-15T03:33:52.976Z,65.2
2022-11-15T03:35:50.638Z,51.3
2022-11-15T03:37:48.274Z,52.4
2022-11-15T03:41:43.490Z,40
2022-11-15T03:45:46.665Z,49.6
2022-11-15T03:47:44.319Z,53.8
2022-11-15T03:49:41.883Z,45.2
2022-11-15T03:51:39.516Z,50.2
2022-11-15T03:55:34.750Z,48
2022-11-15T03:57:40.283Z,43.7
2022-11-15T04:01:35.616Z,61.3
2022-11-15T04:05:30.765Z,46.3
2022-11-15T04:07:28.422Z,39
2022-11-15T04:09:25.997Z,46.4
2022-11-15T04:15:26.778Z,51.8
2022-11-15T04:17:50.002Z,51.4
2022-11-15T04:19:47.616Z,48.5
2022-11-15T04:21:45.238Z,57.6
2022-11-15T04:27:46.029Z,81.9
2022-11-15T04:33:38.896Z,53.8
2022-11-15T04:35:36.524Z,53.7
2022-11-15T04:37:47.977Z,55.7
2022-11-15T04:39:39.683Z,51.2
2022-11-15T04:41:37.289Z,68.3
2022-11-15T04:43:35.206Z,63.9
2022-11-15T04:45:32.512Z,67.2
2022-11-15T04:47:30.133Z,70.1
2022-11-15T04:49:27.744Z,74.2
2022-11-15T04:53:31.238Z,58.1
2022-11-15T04:55:28.589Z,60
2022-11-15T04:57:26.194Z,57.7
2022-11-15T04:59:23.818Z,53.5
2022-11-15T05:01:21.500Z,67.6
2022-11-15T05:05:24.596Z,44.9
2022-11-15T05:10:22.645Z,55.4
2022-11-15T05:12:20.238Z,60.5
2022-11-15T05:14:17.900Z,59.3
2022-11-15T05:16:15.516Z,42.4
2022-11-15T05:18:23.762Z,50.6
2022-11-15T05:20:18.691Z,61.3
2022-11-15T05:22:16.290Z,90
2022-11-15T05:24:13.894Z,49.7
2022-11-15T05:26:11.529Z,43.3
2022-11-15T05:28:09.152Z,55.3
2022-11-15T05:30:06.791Z,60.4
2022-11-15T05:32:12.317Z,54.5
2022-11-15T05:34:09.943Z,42.4
2022-11-15T05:36:07.580Z,46.5
2022-11-15T05:38:05.210Z,39.6
2022-11-15T05:40:02.799Z,43.2
2022-11-15T05:42:00.433Z,48.7
2022-11-15T05:46:03.619Z,42.5
2022-11-15T05:48:01.232Z,47.9
2022-11-15T05:49:58.875Z,41.9
2022-11-15T05:51:56.520Z,44
2022-11-15T05:53:54.113Z,51.9
2022-11-15T05:55:51.768Z,47.2
2022-11-15T05:59:54.901Z,49.4
2022-11-15T06:01:52.587Z,51.6
2022-11-15T06:03:50.143Z,45.2
2022-11-15T06:04:52.921Z,61.7
2022-11-15T06:10:45.822Z,48.9
2022-11-15T06:12:51.358Z,69.6
2022-11-15T06:14:50.602Z,45.9
2022-11-15T06:16:48.102Z,43
2022-11-15T06:18:45.724Z,50.4
2022-11-15T06:20:43.346Z,45.8
2022-11-15T06:24:38.608Z,36.9
2022-11-15T06:26:44.130Z,44
2022-11-15T06:28:41.749Z,57.8
2022-11-15T06:30:39.392Z,47.5
2022-11-15T06:34:34.614Z,50.3
2022-11-15T06:38:29.894Z,55.5
2022-11-15T06:40:35.405Z,41.8
2022-11-15T06:42:33.037Z,51
2022-11-15T06:46:28.303Z,50.4
2022-11-15T06:48:25.922Z,40.8
2022-11-15T06:50:23.566Z,55.4
2022-11-15T06:52:21.188Z,51.1
2022-11-15T06:54:26.746Z,52.4
2022-11-15T06:56:24.377Z,57.1
2022-11-15T06:58:21.997Z,41
2022-11-15T06:59:24.766Z,56.3
2022-11-15T07:03:20.031Z,59.4
2022-11-15T07:05:17.655Z,67
2022-11-15T07:07:23.301Z,53.6
2022-11-15T07:09:20.810Z,46.1
2022-11-15T07:11:18.463Z,46.8
2022-11-15T07:13:16.085Z,42.8
2022-11-15T07:15:13.699Z,43.8
2022-11-15T07:17:11.342Z,48.2
2022-11-15T07:19:08.996Z,39.8
2022-11-15T07:21:14.475Z,54.3
2022-11-15T07:23:12.128Z,51.2
2022-11-15T07:27:07.391Z,40.6
2022-11-15T07:29:05.029Z,51.3
2022-11-15T07:31:02.652Z,59.4
2022-11-15T07:35:05.836Z,56.6
2022-11-15T07:37:03.500Z,56.5
2022-11-15T07:40:58.739Z,47.7
2022-11-15T07:42:56.342Z,47.5
2022-11-15T07:44:53.989Z,40.9
2022-11-15T07:46:51.604Z,47.4
2022-11-15T07:48:57.179Z,60.1
2022-11-15T07:50:54.761Z,53.3
2022-11-15T07:52:52.556Z,45.3
2022-11-15T07:55:15.739Z,88.6
2022-11-15T07:57:13.423Z,46.9
2022-11-15T07:59:11.048Z,55.9
2022-11-15T08:01:16.654Z,60.7
2022-11-15T08:03:14.224Z,40.9
2022-11-15T08:07:09.543Z,63.2
2022-11-15T08:09:07.111Z,49.9
2022-11-15T08:13:02.479Z,41.7
2022-11-15T08:15:07.898Z,50.9
2022-11-15T08:19:03.150Z,45.3
2022-11-15T08:21:00.773Z,39.6
2022-11-15T08:22:58.402Z,36.3
2022-11-15T08:24:56.035Z,37.4
2022-11-15T08:26:53.719Z,41
2022-11-15T08:28:59.232Z,46.9
2022-11-15T08:30:56.857Z,51.2
2022-11-15T08:32:54.494Z,45.8
2022-11-15T08:34:52.119Z,40.1
2022-11-15T08:36:49.727Z,46.2
2022-11-15T08:42:50.583Z,38.5
2022-11-15T08:44:48.206Z,40.2
2022-11-15T08:47:53.805Z,35.5
2022-11-15T08:49:46.195Z,38.8
2022-11-15T08:51:43.820Z,31.8
2022-11-15T08:53:41.451Z,44.7
2022-11-15T08:59:42.263Z,38.2
2022-11-15T09:01:39.969Z,29.5
2022-11-15T09:03:37.521Z,31.8
2022-11-15T09:05:35.146Z,40
2022-11-15T09:07:32.890Z,31.7
2022-11-15T09:09:38.293Z,31
2022-11-15T09:19:26.412Z,45.2
2022-11-15T09:21:24.052Z,38.6
2022-11-15T09:23:29.614Z,18.7
2022-11-15T09:27:24.866Z,24.8
2022-11-15T09:29:22.505Z,24.9
2022-11-15T09:31:22.194Z,21
2022-11-15T09:33:17.724Z,21.3
2022-11-15T09:35:15.349Z,24.4
2022-11-15T09:37:20.878Z,24
2022-11-15T09:48:11.776Z,19.1
2022-11-15T09:56:10.217Z,15.7
2022-11-15T09:58:07.870Z,69.2
2022-11-15T10:00:38.977Z,17.5
2022-11-15T10:02:03.142Z,21.2
2022-11-15T10:04:11.808Z,20.6
2022-11-15T10:06:06.312Z,24.6
2022-11-15T10:08:03.951Z,17.6
2022-11-15T10:10:01.574Z,17.8
2022-11-15T10:11:59.199Z,19.3
2022-11-15T10:13:56.833Z,33.6
2022-11-15T10:15:54.486Z,58.1
2022-11-15T10:18:00.042Z,14.6
2022-11-15T10:21:55.298Z,11.6
2022-11-15T10:23:52.917Z,26
2022-11-15T10:25:50.570Z,20.2
2022-11-15T10:27:48.169Z,15.5
2022-11-15T10:29:45.785Z,26
2022-11-15T10:31:51.324Z,11.9
2022-11-15T10:33:48.944Z,10.4
2022-11-15T10:35:46.551Z,14
2022-11-15T10:36:50.520Z,14.1
2022-11-15T10:38:46.941Z,8.3
2022-11-15T10:40:44.565Z,17
2022-11-15T10:42:42.199Z,15.8
2022-11-15T10:46:46.998Z,12.2
2022-11-15T10:50:40.594Z,9.3
2022-11-15T10:52:38.191Z,12.3
2022-11-15T10:54:35.828Z,18.8
2022-11-15T10:56:33.450Z,8.6
2022-11-15T10:58:39.008Z,10.3
2022-11-15T11:00:36.626Z,6.9
2022-11-15T11:02:34.240Z,11.5
2022-11-15T11:04:31.857Z,7.1
2022-11-15T11:08:27.101Z,9.1
2022-11-15T11:10:50.559Z,9.6
2022-11-15T11:12:30.268Z,10
2022-11-15T11:14:27.899Z,20.1
2022-11-15T11:18:23.157Z,15.2
2022-11-15T11:20:20.747Z,9.2
2022-11-15T11:22:18.372Z,4.8
2022-11-15T11:28:19.136Z,6.6
2022-11-15T11:30:16.769Z,8.2
2022-11-15T11:32:43.652Z,6.4
2022-11-15T11:36:38.876Z,7.4
2022-11-15T11:38:44.391Z,7.3
2022-11-15T11:40:42.034Z,9.8
2022-11-15T11:42:39.649Z,4.1
2022-11-15T11:44:37.239Z,8.5
2022-11-15T11:46:34.874Z,10.8
2022-11-15T11:50:30.078Z,7.4
2022-11-15T11:52:35.642Z,3.7
2022-11-15T11:54:33.296Z,14.6
2022-11-15T11:56:32.471Z,3
2022-11-15T11:58:30.378Z,2.9
2022-11-15T12:00:27.625Z,5.7
2022-11-15T12:02:25.289Z,4.6
2022-11-15T12:04:22.774Z,4
2022-11-15T12:06:28.294Z,3.9
2022-11-15T12:08:25.881Z,3.9
2022-11-15T12:10:23.456Z,3.2
2022-11-15T12:12:21.043Z,5.2
2022-11-15T12:14:18.622Z,3.3
2022-11-15T12:16:16.172Z,5.5
2022-11-15T12:18:13.737Z,13.7
2022-11-15T12:24:14.441Z,4.3
2022-11-15T12:25:17.211Z,18.4
2022-11-15T12:27:14.818Z,5.2
2022-11-15T12:29:12.323Z,0.6
2022-11-15T12:31:09.897Z,6.6
2022-11-15T12:33:15.398Z,9
2022-11-15T12:35:12.972Z,1.3
2022-11-15T12:37:10.496Z,5
2022-11-15T12:39:08.063Z,6.3
2022-11-15T12:41:05.621Z,7.6
2022-11-15T12:43:03.178Z,6.1
2022-11-15T12:47:06.244Z,1.8
2022-11-15T12:49:03.832Z,5.5
2022-11-15T12:51:01.409Z,7.6
2022-11-15T12:52:58.965Z,10.3
2022-11-15T12:54:56.578Z,5.8
2022-11-15T12:56:54.139Z,1.5
2022-11-15T12:58:51.767Z,4.6
2022-11-15T13:00:57.361Z,10.4
2022-11-15T13:02:54.849Z,4.7
2022-11-15T13:04:52.459Z,8.1
2022-11-15T13:06:50.119Z,3.8
2022-11-15T13:08:47.627Z,8.8
2022-11-15T13:10:45.224Z,3.4
2022-11-15T13:12:42.809Z,1.7
2022-11-15T13:14:48.332Z,1.9
2022-11-15T13:16:45.920Z,10.4
2022-11-15T13:18:43.515Z,4.3
2022-11-15T13:19:46.254Z,1.5
2022-11-15T13:21:43.884Z,7.1
2022-11-15T13:23:41.703Z,2.8
2022-11-15T13:25:39.076Z,5.8
2022-11-15T13:27:44.598Z,1.6
2022-11-15T13:29:42.195Z,2
2022-11-15T13:31:39.819Z,1.6
2022-11-15T13:33:37.419Z,5.5
2022-11-15T13:35:35.024Z,11.7
2022-11-15T13:37:32.667Z,1.8
2022-11-15T13:41:35.823Z,18.8
2022-11-15T13:43:33.466Z,5.8
2022-11-15T13:45:31.088Z,3.1
2022-11-15T13:47:28.716Z,11
2022-11-15T13:49:26.325Z,11.6
2022-11-15T13:51:23.935Z,1.7
2022-11-15T13:57:24.752Z,2.7
2022-11-15T13:59:22.371Z,5.6
2022-11-15T14:05:15.237Z,5.2
2022-11-15T14:11:16.061Z,5
2022-11-15T14:13:13.664Z,2.9
2022-11-15T14:16:14.080Z,5.6
2022-11-15T14:18:11.708Z,6.1
2022-11-15T14:20:09.372Z,2.9
2022-11-15T14:22:14.883Z,1.3
2022-11-15T14:24:12.531Z,2.9
2022-11-15T14:26:11.991Z,7.6
2022-11-15T14:28:07.776Z,3.3
2022-11-15T14:30:05.418Z,2.4
2022-11-15T14:32:03.053Z,3.5
2022-11-15T14:34:00.680Z,4.8
2022-11-15T14:38:03.870Z,9.6
2022-11-15T14:40:01.510Z,13.2
2022-11-15T14:41:59.136Z,2.1
2022-11-15T14:43:56.738Z,4
2022-11-15T14:45:54.362Z,7.9
2022-11-15T14:47:51.964Z,1.7
2022-11-15T14:49:57.509Z,1.8
2022-11-15T14:51:55.114Z,14.6
2022-11-15T14:53:52.734Z,14.6
2022-11-15T14:55:50.359Z,10.7
2022-11-15T14:57:48.000Z,1.9
2022-11-15T14:59:45.609Z,8.4
2022-11-15T15:01:43.215Z,9.1
2022-11-15T15:05:46.388Z,11
2022-11-15T15:07:44.262Z,1.6
2022-11-15T15:14:06.185Z,6.5
2022-11-15T15:16:11.727Z,13.9
2022-11-15T15:18:09.356Z,5.1
2022-11-15T15:20:06.946Z,5.7
2022-11-15T15:22:04.573Z,2
2022-11-15T15:24:02.174Z,3.3
2022-11-15T15:25:59.808Z,6.6
2022-11-15T15:27:57.434Z,7.3
2022-11-15T15:30:03.020Z,12.9
2022-11-15T15:32:00.574Z,9.7
2022-11-15T15:33:58.186Z,5.7
2022-11-15T15:35:55.796Z,6.2
2022-11-15T15:37:53.407Z,5
2022-11-15T15:41:51.289Z,6.9
2022-11-15T15:43:54.206Z,4.1
2022-11-15T15:45:51.813Z,2.9
2022-11-15T15:47:49.423Z,3.6
2022-11-15T15:49:47.076Z,10.9
2022-11-15T15:51:44.670Z,6.1
2022-11-15T15:53:42.277Z,5.9
2022-11-15T15:57:45.428Z,6.6
2022-11-15T15:59:43.049Z,2.6
2022-11-15T16:01:40.738Z,9.8
2022-11-15T16:02:43.463Z,6.4
2022-11-15T16:04:41.088Z,7.8
2022-11-15T16:06:38.692Z,3
2022-11-15T16:10:41.862Z,5.6
2022-11-15T16:12:39.473Z,11.1
2022-11-15T16:14:37.089Z,5.4
2022-11-15T16:16:34.729Z,19.6
2022-11-15T16:18:32.769Z,6.5
2022-11-15T16:20:29.978Z,6.6
2022-11-15T16:24:33.152Z,10.7
2022-11-15T16:32:23.724Z,12.7
2022-11-15T16:34:21.238Z,3.4
2022-11-15T16:38:24.460Z,5.3
2022-11-15T16:40:22.092Z,5.8
2022-11-15T16:42:19.692Z,6.3
2022-11-15T16:44:17.313Z,3.2
2022-11-15T16:46:14.940Z,6.1
2022-11-15T16:48:12.549Z,13.3
2022-11-15T16:50:10.258Z,6.3
2022-11-15T16:52:21.026Z,6.6
2022-11-15T16:54:13.360Z,3.7
2022-11-15T16:57:13.761Z,3.5
2022-11-15T16:59:11.368Z,4.3
2022-11-15T17:01:09.070Z,17.9
2022-11-15T17:03:06.626Z,6.1
2022-11-15T17:05:17.270Z,7.3
2022-11-15T17:07:09.728Z,3.4
2022-11-15T17:09:07.286Z,2.6
2022-11-15T17:11:04.922Z,4.1
2022-11-15T17:13:02.532Z,4.4
2022-11-15T17:15:00.178Z,2.1
2022-11-15T17:16:57.777Z,2.8
2022-11-15T17:19:03.315Z,4.7
2022-11-15T17:21:00.900Z,9
2022-11-15T17:22:58.533Z,2
2022-11-15T17:24:56.162Z,8.8
2022-11-15T17:26:53.778Z,7.1
2022-11-15T17:28:51.393Z,6.8
2022-11-15T17:30:49.019Z,3.5
2022-11-15T17:32:54.553Z,10.6
2022-11-15T17:34:52.173Z,2.6
2022-11-15T17:42:44.162Z,5.8
2022-11-15T17:44:41.769Z,4.8
2022-11-15T17:48:44.924Z,9.8
2022-11-15T17:50:42.548Z,3.9
2022-11-15T17:51:49.747Z,3.9
2022-11-15T17:53:42.947Z,7.8
2022-11-15T17:55:40.539Z,4.5
2022-11-15T17:57:38.148Z,6
2022-11-15T17:59:43.689Z,5.7
2022-11-15T18:01:41.381Z,7.5
2022-11-15T18:03:38.964Z,8.4
2022-11-15T18:05:36.607Z,3.7
2022-11-15T18:07:34.325Z,5.3
2022-11-15T18:09:31.848Z,3.4
2022-11-15T18:13:35.335Z,5.6
2022-11-15T18:15:32.654Z,8.3
2022-11-15T18:17:30.262Z,5.2
2022-11-15T18:19:27.886Z,5.5
2022-11-15T18:21:25.517Z,5.9
2022-11-15T18:23:23.148Z,8.8
2022-11-15T18:25:20.785Z,2.4
2022-11-15T18:27:26.321Z,7.3
2022-11-15T18:29:23.951Z,4.9
2022-11-15T18:31:21.596Z,5
2022-11-15T18:33:19.214Z,12.8
2022-11-15T18:35:16.823Z,13.8
2022-11-15T18:37:14.450Z,14.6
2022-11-15T18:39:12.092Z,14.3
2022-11-15T18:41:17.615Z,5.8
2022-11-15T18:43:15.274Z,10.5
2022-11-15T18:45:12.883Z,14.7
2022-11-15T18:47:30.351Z,9.2
2022-11-15T18:49:27.930Z,5.5
2022-11-15T18:51:25.547Z,21.2
2022-11-15T18:53:31.327Z,3.7
2022-11-15T18:59:24.017Z,6
2022-11-15T19:01:21.635Z,7.3
2022-11-15T19:03:23.590Z,7.2
2022-11-15T19:05:16.910Z,9.9
2022-11-15T19:07:22.522Z,7.5
2022-11-15T19:13:15.358Z,5.2
2022-11-15T19:15:12.983Z,5.3
2022-11-15T19:17:10.639Z,4.9
2022-11-15T19:19:08.254Z,7.1
2022-11-15T19:21:16.015Z,8.5
2022-11-15T19:23:11.383Z,7
2022-11-15T19:25:09.035Z,9.5
2022-11-15T19:27:06.659Z,6.7
2022-11-15T19:29:04.308Z,10.1
2022-11-15T19:31:01.917Z,11.9
2022-11-15T19:35:05.083Z,9.9
2022-11-15T19:40:03.132Z,14.9
2022-11-15T19:43:58.358Z,7.8
2022-11-15T19:46:00.969Z,9.8
2022-11-15T19:51:56.806Z,7.1
2022-11-15T19:53:54.418Z,8.5
2022-11-15T19:55:52.047Z,9.5
2022-11-15T19:57:49.695Z,6.6
2022-11-15T19:59:47.322Z,10
2022-11-15T20:01:52.876Z,9.8
2022-11-15T20:03:50.501Z,12.1
2022-11-15T20:05:48.142Z,8.7
2022-11-15T20:07:45.769Z,10.1
2022-11-15T20:09:43.411Z,6.1
2022-11-15T20:11:41.018Z,9.3
2022-11-15T20:13:38.653Z,7.5
2022-11-15T20:15:44.185Z,9.3
2022-11-15T20:17:41.805Z,8.4
2022-11-15T20:19:39.445Z,10.7
2022-11-15T20:21:37.102Z,15.2
2022-11-15T20:23:34.715Z,10.2
2022-11-15T20:25:32.322Z,9.5
2022-11-15T20:29:35.537Z,7.5
2022-11-15T20:31:33.108Z,9.3
2022-11-15T20:34:33.503Z,13.9
2022-11-15T20:36:31.156Z,17
2022-11-15T20:38:28.776Z,9.8
2022-11-15T20:40:26.390Z,12.5
2022-11-15T20:42:31.932Z,13.1
2022-11-15T20:44:29.574Z,10.3
2022-11-15T20:46:27.174Z,10.8
2022-11-15T20:48:24.810Z,11
2022-11-15T20:50:41.483Z,7.6
2022-11-15T20:52:20.077Z,9.8
2022-11-15T20:54:17.690Z,17.6
2022-11-15T20:56:23.260Z,11.1
2022-11-15T21:02:16.308Z,10.2
2022-11-15T21:04:13.718Z,10.8
2022-11-15T21:06:11.349Z,8.3
2022-11-15T21:08:08.972Z,16.7
2022-11-15T21:10:14.505Z,11
2022-11-15T21:12:12.148Z,17.2
2022-11-15T21:14:09.960Z,11.2
2022-11-15T21:18:05.049Z,11.1
2022-11-15T21:20:02.695Z,16.5
2022-11-15T21:22:00.295Z,10.7
2022-11-15T21:24:05.819Z,12.9
2022-11-15T21:26:03.476Z,13.1
2022-11-15T21:28:01.096Z,9.1
2022-11-15T21:29:03.876Z,8
2022-11-15T21:31:01.508Z,12.2
2022-11-15T21:32:59.144Z,11.8
2022-11-15T21:34:56.760Z,24.3
2022-11-15T21:37:02.308Z,14.4
2022-11-15T21:42:55.213Z,12.8
2022-11-15T21:44:52.840Z,12.4
2022-11-15T21:46:50.432Z,15.3
2022-11-15T21:48:48.050Z,12.8
2022-11-15T21:50:53.599Z,25
2022-11-15T21:52:51.216Z,18.9
2022-11-15T21:54:48.859Z,26.4
2022-11-15T21:56:46.491Z,18.8
2022-11-15T21:58:44.094Z,14.9
2022-11-15T22:00:41.715Z,11.9
2022-11-15T22:02:39.327Z,14.1
2022-11-15T22:04:44.841Z,15.4
2022-11-15T22:06:42.477Z,21.5
2022-11-15T22:12:35.705Z,23.2
2022-11-15T22:14:33.327Z,15.7
2022-11-15T22:16:30.945Z,18.8
2022-11-15T22:18:36.751Z,18.9
2022-11-15T22:20:44.525Z,20.5
2022-11-15T22:22:31.764Z,20.4
2022-11-15T22:24:58.708Z,25.2
2022-11-15T22:28:53.974Z,19.4
2022-11-15T22:34:54.774Z,18.2
2022-11-15T22:37:18.994Z,17.5
2022-11-15T22:40:47.616Z,18.1
2022-11-15T22:42:45.236Z,20.9
2022-11-15T22:46:48.402Z,24.2
2022-11-15T22:48:46.022Z,33.1
2022-11-15T22:54:38.925Z,20
2022-11-15T22:58:42.033Z,27.2
2022-11-15T23:02:37.399Z,22.5
2022-11-15T23:04:34.950Z,22.8
2022-11-15T23:06:32.572Z,23.4
2022-11-15T23:10:27.813Z,27.3
2022-11-15T23:12:33.329Z,26
2022-11-15T23:14:30.950Z,28.6
2022-11-15T23:16:28.557Z,30.9
2022-11-15T23:17:31.354Z,30.2
2022-11-15T23:19:30.524Z,28.8
2022-11-15T23:23:25.698Z,26.7
2022-11-15T23:27:28.850Z,26.7
2022-11-15T23:29:26.492Z,32.9
2022-11-15T23:31:24.111Z,29.4
2022-11-15T23:33:21.736Z,21.5
2022-11-15T23:39:22.502Z,30.2
2022-11-15T23:41:20.134Z,27.4
2022-11-15T23:43:17.753Z,23.4
2022-11-15T23:47:13.041Z,39.1
2022-11-15T23:49:10.650Z,23.7
2022-11-15T23:51:08.302Z,27.4
2022-11-15T23:53:13.808Z,27.4
2022-11-15T23:55:11.461Z,30
2022-11-15T23:57:09.076Z,38.9
2022-11-15T23:59:06.719Z,29.4
